createdAt,value
2023-06-09T00:00:03.101Z,21.07
2023-06-09T00:00:03.712Z,21.04
2023-06-09T00:00:14.667Z,21.05
2023-06-09T00:00:24.298Z,21.05
2023-06-09T00:00:34.548Z,21.05
2023-06-09T00:00:44.849Z,21.05
2023-06-09T00:01:08.172Z,21.04
2023-06-09T00:01:15.846Z,21.03
2023-06-09T00:01:26.119Z,21.00
2023-06-09T00:01:36.366Z,21.01
2023-06-09T00:01:46.656Z,21.01
2023-06-09T00:01:57.224Z,21.00
2023-06-09T00:02:17.727Z,20.98
2023-06-09T00:02:28.028Z,20.98
2023-06-09T00:02:38.297Z,20.98
2023-06-09T00:02:51.326Z,20.96
2023-06-09T00:03:01.207Z,20.96
2023-06-09T00:03:09.270Z,20.96
2023-06-09T00:03:19.703Z,20.95
2023-06-09T00:03:30.071Z,20.95
2023-06-09T00:03:40.518Z,20.93
2023-06-09T00:04:01.206Z,20.95
2023-06-09T00:04:11.587Z,20.93
2023-06-09T00:04:43.668Z,20.93
2023-06-09T00:04:44.250Z,20.92
2023-06-09T00:04:54.498Z,20.90
2023-06-09T00:05:26.674Z,20.92
2023-06-09T00:05:30.174Z,20.89
2023-06-09T00:05:40.171Z,20.90
2023-06-09T00:06:02.686Z,20.88
2023-06-09T00:06:03.215Z,20.86
2023-06-09T00:06:14.230Z,20.86
2023-06-09T00:06:34.182Z,20.86
2023-06-09T00:06:44.476Z,20.85
2023-06-09T00:06:58.202Z,20.85
2023-06-09T00:07:05.009Z,20.86
2023-06-09T00:07:15.265Z,20.85
2023-06-09T00:07:32.188Z,20.86
2023-06-09T00:07:50.680Z,20.83
2023-06-09T00:07:51.251Z,20.82
2023-06-09T00:08:01.496Z,20.82
2023-06-09T00:08:11.758Z,20.82
2023-06-09T00:08:24.703Z,20.82
2023-06-09T00:08:33.193Z,20.80
2023-06-09T00:08:55.685Z,20.80
2023-06-09T00:09:10.174Z,20.78
2023-06-09T00:09:13.742Z,20.78
2023-06-09T00:09:24.013Z,20.80
2023-06-09T00:09:34.269Z,20.77
2023-06-09T00:09:45.171Z,20.77
2023-06-09T00:10:05.205Z,20.77
2023-06-09T00:10:15.509Z,20.74
2023-06-09T00:10:26.688Z,20.75
2023-06-09T00:10:42.674Z,20.74
2023-06-09T00:10:47.180Z,20.73
2023-06-09T00:10:59.682Z,20.73
2023-06-09T00:11:07.130Z,20.73
2023-06-09T00:11:17.416Z,20.70
2023-06-09T00:11:27.685Z,20.71
2023-06-09T00:11:48.150Z,20.70
2023-06-09T00:11:59.225Z,20.70
2023-06-09T00:12:08.804Z,20.67
2023-06-09T00:12:19.092Z,20.68
2023-06-09T00:12:29.352Z,20.70
2023-06-09T00:12:39.619Z,20.66
2023-06-09T00:12:49.887Z,20.66
2023-06-09T00:13:02.707Z,20.67
2023-06-09T00:13:10.353Z,20.66
2023-06-09T00:13:20.615Z,20.64
2023-06-09T00:13:30.895Z,20.64
2023-06-09T00:13:44.177Z,20.63
2023-06-09T00:13:51.437Z,20.63
2023-06-09T00:14:12.104Z,20.60
2023-06-09T00:14:22.360Z,20.63
2023-06-09T00:14:32.649Z,20.60
2023-06-09T00:14:43.685Z,20.64
2023-06-09T00:14:53.294Z,20.56
2023-06-09T00:15:03.567Z,20.59
2023-06-09T00:15:13.811Z,20.58
2023-06-09T00:15:24.092Z,20.58
2023-06-09T00:15:34.372Z,20.58
2023-06-09T00:15:44.608Z,20.56
2023-06-09T00:15:55.191Z,20.56
2023-06-09T00:16:05.264Z,20.56
2023-06-09T00:16:15.535Z,20.55
2023-06-09T00:16:26.699Z,20.55
2023-06-09T00:16:36.169Z,20.56
2023-06-09T00:16:46.415Z,20.55
2023-06-09T00:16:56.836Z,20.55
2023-06-09T00:17:06.953Z,20.53
2023-06-09T00:17:17.342Z,20.55
2023-06-09T00:17:30.207Z,20.52
2023-06-09T00:17:40.690Z,20.52
2023-06-09T00:17:48.159Z,20.52
2023-06-09T00:17:58.462Z,20.50
2023-06-09T00:18:08.755Z,20.52
2023-06-09T00:18:19.007Z,20.50
2023-06-09T00:18:39.677Z,20.49
2023-06-09T00:18:49.936Z,20.49
2023-06-09T00:19:07.184Z,20.48
2023-06-09T00:19:10.544Z,20.46
2023-06-09T00:19:20.905Z,20.48
2023-06-09T00:19:31.188Z,20.46
2023-06-09T00:19:44.191Z,20.48
2023-06-09T00:19:52.697Z,20.44
2023-06-09T00:20:12.450Z,20.42
2023-06-09T00:20:25.712Z,20.42
2023-06-09T00:20:32.968Z,20.42
2023-06-09T00:20:46.175Z,20.40
2023-06-09T00:20:53.702Z,20.40
2023-06-09T00:21:04.689Z,20.40
2023-06-09T00:21:14.298Z,20.36
2023-06-09T00:21:35.681Z,20.37
2023-06-09T00:21:45.302Z,20.36
2023-06-09T00:21:55.556Z,20.36
2023-06-09T00:22:06.696Z,20.36
2023-06-09T00:22:16.688Z,20.36
2023-06-09T00:22:29.188Z,20.36
2023-06-09T00:22:37.679Z,20.36
2023-06-09T00:22:47.074Z,20.36
2023-06-09T00:22:57.427Z,20.36
2023-06-09T00:23:07.709Z,20.34
2023-06-09T00:23:17.969Z,20.33
2023-06-09T00:23:38.674Z,20.33
2023-06-09T00:23:48.958Z,20.30
2023-06-09T00:23:59.279Z,20.30
2023-06-09T00:24:09.577Z,20.30
2023-06-09T00:24:19.896Z,20.30
2023-06-09T00:24:30.168Z,20.29
2023-06-09T00:24:41.191Z,20.29
2023-06-09T00:25:11.815Z,20.29
2023-06-09T00:25:12.362Z,20.29
2023-06-09T00:25:22.654Z,20.27
2023-06-09T00:25:33.197Z,20.26
2023-06-09T00:25:43.274Z,20.27
2023-06-09T00:25:53.518Z,20.27
2023-06-09T00:26:14.191Z,20.24
2023-06-09T00:26:24.447Z,20.24
2023-06-09T00:26:35.685Z,20.22
2023-06-09T00:26:45.682Z,20.24
2023-06-09T00:27:02.182Z,20.24
2023-06-09T00:27:05.541Z,20.26
2023-06-09T00:27:15.804Z,20.21
2023-06-09T00:27:26.060Z,20.21
2023-06-09T00:27:36.322Z,20.21
2023-06-09T00:27:47.201Z,20.21
2023-06-09T00:28:07.814Z,20.22
2023-06-09T00:28:17.603Z,20.18
2023-06-09T00:28:27.861Z,20.19
2023-06-09T00:28:38.678Z,20.19
2023-06-09T00:28:48.548Z,20.18
2023-06-09T00:28:59.682Z,20.18
2023-06-09T00:29:09.704Z,20.17
2023-06-09T00:29:20.185Z,20.15
2023-06-09T00:29:29.584Z,20.18
2023-06-09T00:29:39.880Z,20.15
2023-06-09T00:29:50.258Z,20.14
2023-06-09T00:30:00.528Z,20.15
2023-06-09T00:30:17.024Z,20.12
2023-06-09T00:30:37.345Z,20.15
2023-06-09T00:30:38.808Z,20.14
2023-06-09T00:30:43.691Z,20.12
2023-06-09T00:30:52.057Z,20.12
2023-06-09T00:31:02.359Z,20.11
2023-06-09T00:31:12.696Z,20.11
2023-06-09T00:31:23.697Z,20.10
2023-06-09T00:31:33.347Z,20.11
2023-06-09T00:31:54.007Z,20.08
2023-06-09T00:32:04.283Z,20.08
2023-06-09T00:32:14.540Z,20.08
2023-06-09T00:32:24.822Z,20.08
2023-06-09T00:32:35.699Z,20.08
2023-06-09T00:32:45.377Z,20.08
2023-06-09T00:32:56.236Z,20.08
2023-06-09T00:33:12.727Z,20.07
2023-06-09T00:33:19.184Z,20.04
2023-06-09T00:33:26.649Z,20.04
2023-06-09T00:33:37.685Z,20.04
2023-06-09T00:33:47.314Z,20.07
2023-06-09T00:33:58.188Z,20.03
2023-06-09T00:34:14.698Z,20.03
2023-06-09T00:34:31.216Z,20.02
2023-06-09T00:34:38.812Z,20.02
2023-06-09T00:34:49.097Z,20.00
2023-06-09T00:34:59.391Z,20.00
2023-06-09T00:35:09.790Z,19.99
2023-06-09T00:35:22.695Z,20.00
2023-06-09T00:35:40.818Z,19.99
2023-06-09T00:35:51.092Z,19.97
2023-06-09T00:36:01.380Z,19.99
2023-06-09T00:36:12.191Z,19.99
2023-06-09T00:36:22.683Z,19.97
2023-06-09T00:36:33.192Z,19.96
2023-06-09T00:36:42.589Z,19.96
2023-06-09T00:36:59.695Z,19.96
2023-06-09T00:37:06.195Z,19.94
2023-06-09T00:37:13.657Z,19.94
2023-06-09T00:37:24.697Z,19.93
2023-06-09T00:37:34.312Z,19.93
2023-06-09T00:37:44.589Z,19.94
2023-06-09T00:38:05.239Z,19.92
2023-06-09T00:38:15.510Z,19.92
2023-06-09T00:38:26.698Z,19.92
2023-06-09T00:38:38.689Z,19.90
2023-06-09T00:38:47.181Z,19.90
2023-06-09T00:39:03.185Z,19.89
2023-06-09T00:39:07.215Z,19.87
2023-06-09T00:39:17.267Z,19.89
2023-06-09T00:39:27.741Z,19.89
2023-06-09T00:39:48.687Z,19.89
2023-06-09T00:39:59.192Z,19.87
2023-06-09T00:40:08.813Z,19.85
2023-06-09T00:40:19.095Z,19.87
2023-06-09T00:40:29.702Z,19.85
2023-06-09T00:40:39.752Z,19.84
2023-06-09T00:40:50.031Z,19.84
2023-06-09T00:41:00.274Z,19.84
2023-06-09T00:41:10.548Z,19.84
2023-06-09T00:41:20.806Z,19.81
2023-06-09T00:41:31.072Z,19.82
2023-06-09T00:41:41.346Z,19.82
2023-06-09T00:41:51.593Z,19.81
2023-06-09T00:42:01.865Z,19.82
2023-06-09T00:42:12.115Z,19.81
2023-06-09T00:42:22.383Z,19.81
2023-06-09T00:42:32.666Z,19.78
2023-06-09T00:42:42.909Z,19.79
2023-06-09T00:42:55.709Z,19.79
2023-06-09T00:43:03.575Z,19.77
2023-06-09T00:43:20.715Z,19.77
2023-06-09T00:43:31.323Z,19.77
2023-06-09T00:43:34.688Z,19.75
2023-06-09T00:43:45.685Z,19.77
2023-06-09T00:44:02.195Z,19.75
2023-06-09T00:44:08.245Z,19.75
2023-06-09T00:44:26.116Z,19.74
2023-06-09T00:44:36.351Z,19.74
2023-06-09T00:44:46.645Z,19.74
2023-06-09T00:44:59.686Z,19.74
2023-06-09T00:45:13.688Z,19.74
2023-06-09T00:45:17.726Z,19.71
2023-06-09T00:45:28.705Z,19.72
2023-06-09T00:45:38.730Z,19.71
2023-06-09T00:45:49.206Z,19.70
2023-06-09T00:46:09.030Z,19.71
2023-06-09T00:46:19.328Z,19.71
2023-06-09T00:46:30.233Z,19.71
2023-06-09T00:46:39.945Z,19.70
2023-06-09T00:46:50.233Z,19.70
2023-06-09T00:47:01.296Z,19.70
2023-06-09T00:47:13.693Z,19.70
2023-06-09T00:47:21.182Z,19.67
2023-06-09T00:47:31.624Z,19.67
2023-06-09T00:47:44.223Z,19.66
2023-06-09T00:47:51.934Z,19.66
2023-06-09T00:48:02.275Z,19.64
2023-06-09T00:48:15.196Z,19.64
2023-06-09T00:48:25.697Z,19.64
2023-06-09T00:48:33.154Z,19.63
2023-06-09T00:48:54.689Z,19.63
2023-06-09T00:49:06.705Z,19.63
2023-06-09T00:49:14.382Z,19.60
2023-06-09T00:49:24.724Z,19.60
2023-06-09T00:49:35.021Z,19.59
2023-06-09T00:49:45.283Z,19.59
2023-06-09T00:49:55.566Z,19.59
2023-06-09T00:50:08.703Z,19.59
2023-06-09T00:50:16.169Z,19.59
2023-06-09T00:50:26.417Z,19.57
2023-06-09T00:50:36.682Z,19.57
2023-06-09T00:50:49.726Z,19.56
2023-06-09T00:50:57.159Z,19.56
2023-06-09T00:51:18.698Z,19.56
2023-06-09T00:51:30.712Z,19.55
2023-06-09T00:51:41.204Z,19.53
2023-06-09T00:51:48.652Z,19.55
2023-06-09T00:51:58.912Z,19.53
2023-06-09T00:52:09.188Z,19.53
2023-06-09T00:52:19.444Z,19.53
2023-06-09T00:53:03.694Z,19.52
2023-06-09T00:53:04.262Z,19.47
2023-06-09T00:53:15.192Z,19.48
2023-06-09T00:53:27.708Z,19.49
2023-06-09T00:53:35.698Z,19.47
2023-06-09T00:53:46.199Z,19.47
2023-06-09T00:54:06.218Z,19.47
2023-06-09T00:54:16.481Z,19.45
2023-06-09T00:54:30.229Z,19.42
2023-06-09T00:54:37.053Z,19.41
2023-06-09T00:54:47.319Z,19.44
2023-06-09T00:54:58.208Z,19.44
2023-06-09T00:55:08.984Z,19.44
2023-06-09T00:55:19.295Z,19.44
2023-06-09T00:55:39.715Z,19.41
2023-06-09T00:55:49.316Z,19.42
2023-06-09T00:56:00.206Z,19.41
2023-06-09T00:56:16.713Z,19.41
2023-06-09T00:56:20.711Z,19.39
2023-06-09T00:56:30.320Z,19.41
2023-06-09T00:56:40.583Z,19.41
2023-06-09T00:56:50.870Z,19.39
2023-06-09T00:57:01.129Z,19.38
2023-06-09T00:57:21.629Z,19.38
2023-06-09T00:57:31.893Z,19.38
2023-06-09T00:57:42.149Z,19.38
2023-06-09T00:57:53.200Z,19.35
2023-06-09T00:58:03.701Z,19.37
2023-06-09T00:58:13.720Z,19.34
2023-06-09T00:58:23.334Z,19.34
2023-06-09T00:58:33.592Z,19.35
2023-06-09T00:58:44.743Z,19.37
2023-06-09T00:58:54.129Z,19.34
2023-06-09T00:59:04.411Z,19.35
2023-06-09T00:59:14.678Z,19.34
2023-06-09T00:59:24.949Z,19.34
2023-06-09T00:59:35.251Z,19.32
2023-06-09T00:59:48.210Z,19.32
2023-06-09T00:59:56.703Z,19.30
2023-06-09T01:00:06.696Z,19.29
2023-06-09T01:00:16.312Z,19.29
2023-06-09T01:00:29.310Z,19.29
2023-06-09T01:00:37.052Z,19.30
2023-06-09T01:00:58.771Z,19.27
2023-06-09T01:01:08.767Z,19.27
2023-06-09T01:01:18.397Z,19.27
2023-06-09T01:01:29.329Z,19.26
2023-06-09T01:01:45.763Z,19.26
2023-06-09T01:01:50.196Z,19.23
2023-06-09T01:02:20.601Z,19.24
2023-06-09T01:02:21.171Z,19.22
2023-06-09T01:02:34.254Z,19.23
2023-06-09T01:02:41.851Z,19.24
2023-06-09T01:02:52.070Z,19.23
2023-06-09T01:03:02.693Z,19.22
2023-06-09T01:03:22.827Z,19.22
2023-06-09T01:03:33.175Z,19.22
2023-06-09T01:03:43.558Z,19.20
2023-06-09T01:03:53.837Z,19.19
2023-06-09T01:04:04.117Z,19.20
2023-06-09T01:04:14.409Z,19.19
2023-06-09T01:04:24.665Z,19.17
2023-06-09T01:04:35.710Z,19.19
2023-06-09T01:04:45.318Z,19.19
2023-06-09T01:04:56.198Z,19.19
2023-06-09T01:05:06.861Z,19.17
2023-06-09T01:05:16.176Z,19.17
2023-06-09T01:05:41.251Z,19.16
2023-06-09T01:05:42.693Z,19.11
2023-06-09T01:05:52.097Z,19.15
2023-06-09T01:06:02.382Z,19.16
2023-06-09T01:06:13.229Z,19.12
2023-06-09T01:06:23.712Z,19.15
2023-06-09T01:06:43.729Z,19.11
2023-06-09T01:06:54.705Z,19.11
2023-06-09T01:07:04.320Z,19.11
2023-06-09T01:07:15.222Z,19.11
2023-06-09T01:07:24.813Z,19.08
2023-06-09T01:07:35.077Z,19.09
2023-06-09T01:07:45.341Z,19.09
2023-06-09T01:07:55.602Z,19.09
2023-06-09T01:08:05.877Z,19.08
2023-06-09T01:08:30.736Z,19.08
2023-06-09T01:08:31.283Z,19.08
2023-06-09T01:08:42.237Z,19.07
2023-06-09T01:08:51.822Z,19.07
2023-06-09T01:09:02.074Z,19.07
2023-06-09T01:09:12.336Z,19.07
2023-06-09T01:09:33.013Z,19.05
2023-06-09T01:09:43.271Z,19.04
2023-06-09T01:09:54.200Z,19.04
2023-06-09T01:10:04.722Z,19.04
2023-06-09T01:10:14.105Z,19.01
2023-06-09T01:10:24.366Z,19.04
2023-06-09T01:10:34.622Z,19.01
2023-06-09T01:10:44.907Z,19.00
2023-06-09T01:10:55.152Z,19.00
2023-06-09T01:11:05.432Z,19.00
2023-06-09T01:11:15.682Z,19.00
2023-06-09T01:11:25.941Z,18.98
2023-06-09T01:11:51.219Z,18.98
2023-06-09T01:11:51.760Z,18.97
2023-06-09T01:12:02.040Z,18.97
2023-06-09T01:12:12.283Z,18.97
2023-06-09T01:12:22.538Z,18.96
2023-06-09T01:12:35.719Z,18.97
2023-06-09T01:12:53.446Z,18.96
2023-06-09T01:13:03.720Z,18.94
2023-06-09T01:13:13.983Z,18.96
2023-06-09T01:13:24.223Z,18.94
2023-06-09T01:13:35.207Z,18.94
2023-06-09T01:13:47.753Z,18.94
2023-06-09T01:13:55.167Z,18.94
2023-06-09T01:14:05.426Z,18.91
2023-06-09T01:14:16.203Z,18.89
2023-06-09T01:14:26.049Z,18.91
2023-06-09T01:14:36.297Z,18.89
2023-06-09T01:14:57.736Z,18.91
2023-06-09T01:15:10.424Z,18.89
2023-06-09T01:15:18.758Z,18.88
2023-06-09T01:16:03.742Z,18.88
2023-06-09T01:16:04.295Z,18.85
2023-06-09T01:16:15.269Z,18.88
2023-06-09T01:16:25.718Z,18.86
2023-06-09T01:16:35.226Z,18.86
2023-06-09T01:16:45.544Z,18.83
2023-06-09T01:17:13.209Z,18.85
2023-06-09T01:17:16.568Z,18.85
2023-06-09T01:17:27.765Z,18.85
2023-06-09T01:17:37.180Z,18.83
2023-06-09T01:17:47.498Z,18.83
2023-06-09T01:17:57.813Z,18.82
2023-06-09T01:18:14.726Z,18.83
2023-06-09T01:18:18.514Z,18.82
2023-06-09T01:18:29.703Z,18.83
2023-06-09T01:18:39.104Z,18.79
2023-06-09T01:18:49.373Z,18.79
2023-06-09T01:18:59.652Z,18.79
2023-06-09T01:19:20.129Z,18.79
2023-06-09T01:19:30.390Z,18.78
2023-06-09T01:19:43.229Z,18.78
2023-06-09T01:19:51.776Z,18.78
2023-06-09T01:20:01.220Z,18.76
2023-06-09T01:20:11.459Z,18.78
2023-06-09T01:20:21.734Z,18.76
2023-06-09T01:20:31.998Z,18.74
2023-06-09T01:20:43.232Z,18.74
2023-06-09T01:20:55.221Z,18.76
2023-06-09T01:21:02.885Z,18.74
2023-06-09T01:21:13.150Z,18.74
2023-06-09T01:21:23.406Z,18.73
2023-06-09T01:21:36.248Z,18.73
2023-06-09T01:21:44.705Z,18.73
2023-06-09T01:22:04.769Z,18.71
2023-06-09T01:22:15.014Z,18.70
2023-06-09T01:22:25.291Z,18.71
2023-06-09T01:22:35.556Z,18.70
2023-06-09T01:22:45.820Z,18.70
2023-06-09T01:22:56.092Z,18.70
2023-06-09T01:23:06.345Z,18.68
2023-06-09T01:23:16.605Z,18.70
2023-06-09T01:23:27.766Z,18.68
2023-06-09T01:23:37.195Z,18.68
2023-06-09T01:23:47.454Z,18.67
2023-06-09T01:23:57.740Z,18.67
2023-06-09T01:24:08.837Z,18.67
2023-06-09T01:24:21.217Z,18.68
2023-06-09T01:24:29.228Z,18.66
2023-06-09T01:24:39.068Z,18.66
2023-06-09T01:24:49.320Z,18.66
2023-06-09T01:24:59.571Z,18.66
2023-06-09T01:25:12.717Z,18.64
2023-06-09T01:25:31.228Z,18.66
2023-06-09T01:25:41.713Z,18.64
2023-06-09T01:25:51.705Z,18.63
2023-06-09T01:26:01.538Z,18.63
2023-06-09T01:26:11.797Z,18.63
2023-06-09T01:26:22.072Z,18.63
2023-06-09T01:26:32.338Z,18.64
2023-06-09T01:26:42.605Z,18.61
2023-06-09T01:26:55.710Z,18.63
2023-06-09T01:27:03.184Z,18.60
2023-06-09T01:27:13.439Z,18.61
2023-06-09T01:27:23.701Z,18.58
2023-06-09T01:27:33.960Z,18.61
2023-06-09T01:27:44.232Z,18.60
2023-06-09T01:28:04.783Z,18.60
2023-06-09T01:28:15.046Z,18.57
2023-06-09T01:28:28.214Z,18.58
2023-06-09T01:28:35.672Z,18.55
2023-06-09T01:28:45.947Z,18.55
2023-06-09T01:28:56.225Z,18.55
2023-06-09T01:29:06.476Z,18.53
2023-06-09T01:29:16.745Z,18.57
2023-06-09T01:29:37.428Z,18.53
2023-06-09T01:29:48.213Z,18.57
2023-06-09T01:30:00.733Z,18.53
2023-06-09T01:30:08.430Z,18.52
2023-06-09T01:30:21.242Z,18.52
2023-06-09T01:30:35.714Z,18.53
2023-06-09T01:30:39.498Z,18.52
2023-06-09T01:30:56.730Z,18.51
2023-06-09T01:31:11.223Z,18.52
2023-06-09T01:31:21.387Z,18.51
2023-06-09T01:31:31.292Z,18.51
2023-06-09T01:31:41.794Z,18.49
2023-06-09T01:31:52.260Z,18.49
2023-06-09T01:32:02.123Z,18.51
2023-06-09T01:32:12.466Z,18.46
2023-06-09T01:32:22.832Z,18.46
2023-06-09T01:32:33.101Z,18.48
2023-06-09T01:32:44.424Z,18.48
2023-06-09T01:32:53.686Z,18.48
2023-06-09T01:33:04.007Z,18.45
2023-06-09T01:33:14.366Z,18.48
2023-06-09T01:33:24.613Z,18.45
2023-06-09T01:33:34.885Z,18.43
2023-06-09T01:33:45.173Z,18.45
2023-06-09T01:33:56.227Z,18.45
2023-06-09T01:34:07.751Z,18.46
2023-06-09T01:34:16.718Z,18.42
2023-06-09T01:34:26.356Z,18.45
2023-06-09T01:34:36.602Z,18.43
2023-06-09T01:34:53.709Z,18.42
2023-06-09T01:34:57.067Z,18.41
2023-06-09T01:35:17.740Z,18.41
2023-06-09T01:35:29.536Z,18.39
2023-06-09T01:35:38.256Z,18.39
2023-06-09T01:35:48.525Z,18.37
2023-06-09T01:35:58.822Z,18.39
2023-06-09T01:36:09.091Z,18.36
2023-06-09T01:36:19.363Z,18.36
2023-06-09T01:36:29.725Z,18.37
2023-06-09T01:36:39.986Z,18.36
2023-06-09T01:36:50.254Z,18.36
2023-06-09T01:37:00.515Z,18.36
2023-06-09T01:37:10.783Z,18.33
2023-06-09T01:37:21.045Z,18.34
2023-06-09T01:37:31.301Z,18.34
2023-06-09T01:37:44.216Z,18.33
2023-06-09T01:37:51.884Z,18.33
2023-06-09T01:38:02.142Z,18.33
2023-06-09T01:38:12.410Z,18.34
2023-06-09T01:38:37.211Z,18.31
2023-06-09T01:38:37.761Z,18.31
2023-06-09T01:38:50.725Z,18.31
2023-06-09T01:38:58.388Z,18.31
2023-06-09T01:39:11.212Z,18.31
2023-06-09T01:39:18.888Z,18.30
2023-06-09T01:39:39.567Z,18.28
2023-06-09T01:39:49.831Z,18.30
2023-06-09T01:40:00.113Z,18.28
2023-06-09T01:40:11.216Z,18.27
2023-06-09T01:40:20.611Z,18.27
2023-06-09T01:40:30.885Z,18.26
2023-06-09T01:40:41.235Z,18.27
2023-06-09T01:40:51.494Z,18.26
2023-06-09T01:41:02.236Z,18.24
2023-06-09T01:41:14.719Z,18.26
2023-06-09T01:41:23.210Z,18.26
2023-06-09T01:41:35.221Z,18.24
2023-06-09T01:41:43.720Z,18.21
2023-06-09T01:41:53.117Z,18.24
2023-06-09T01:42:03.395Z,18.24
2023-06-09T01:42:24.059Z,18.24
2023-06-09T01:42:34.323Z,18.24
2023-06-09T01:42:44.582Z,18.21
2023-06-09T01:43:01.719Z,18.21
2023-06-09T01:43:05.067Z,18.21
2023-06-09T01:43:15.352Z,18.21
2023-06-09T01:43:25.604Z,18.21
2023-06-09T01:43:50.717Z,18.23
2023-06-09T01:43:52.219Z,18.19
2023-06-09T01:44:11.868Z,18.18
2023-06-09T01:44:22.132Z,18.16
2023-06-09T01:44:32.389Z,18.18
2023-06-09T01:44:42.653Z,18.19
2023-06-09T01:44:52.918Z,18.18
2023-06-09T01:45:03.737Z,18.18
2023-06-09T01:45:13.439Z,18.18
2023-06-09T01:45:23.743Z,18.16
2023-06-09T01:45:34.006Z,18.18
2023-06-09T01:45:44.306Z,18.16
2023-06-09T01:45:54.602Z,18.16
2023-06-09T01:46:04.842Z,18.15
2023-06-09T01:46:15.205Z,18.15
2023-06-09T01:46:25.582Z,18.15
2023-06-09T01:46:50.709Z,18.13
2023-06-09T01:46:54.215Z,18.13
2023-06-09T01:47:01.674Z,18.15
2023-06-09T01:47:12.723Z,18.13
2023-06-09T01:47:22.371Z,18.13
2023-06-09T01:47:32.684Z,18.12
2023-06-09T01:47:53.302Z,18.11
2023-06-09T01:48:03.605Z,18.12
2023-06-09T01:48:13.926Z,18.09
2023-06-09T01:48:24.238Z,18.11
2023-06-09T01:48:34.517Z,18.11
2023-06-09T01:48:44.768Z,18.09
2023-06-09T01:49:01.714Z,18.08
2023-06-09T01:49:05.282Z,18.11
2023-06-09T01:49:15.551Z,18.09
2023-06-09T01:49:26.713Z,18.08
2023-06-09T01:49:38.716Z,18.08
2023-06-09T01:49:47.234Z,18.08
2023-06-09T01:50:07.716Z,18.06
2023-06-09T01:50:17.372Z,18.05
2023-06-09T01:50:27.738Z,18.06
2023-06-09T01:50:38.017Z,18.06
2023-06-09T01:50:51.216Z,18.03
2023-06-09T01:50:59.216Z,18.05
2023-06-09T01:51:11.737Z,18.05
2023-06-09T01:51:19.408Z,18.05
2023-06-09T01:51:29.656Z,18.03
2023-06-09T01:51:39.938Z,18.03
2023-06-09T01:52:01.216Z,18.03
2023-06-09T01:52:11.717Z,18.03
2023-06-09T01:52:23.714Z,18.02
2023-06-09T01:52:31.384Z,18.02
2023-06-09T01:52:41.665Z,18.00
2023-06-09T01:52:52.722Z,18.00
2023-06-09T01:53:02.325Z,17.97
2023-06-09T01:53:13.845Z,17.98
2023-06-09T01:53:33.272Z,17.98
2023-06-09T01:53:43.553Z,18.00
2023-06-09T01:53:56.715Z,17.98
2023-06-09T01:54:04.192Z,17.97
2023-06-09T01:54:14.430Z,17.97
2023-06-09T01:54:31.215Z,17.97
2023-06-09T01:54:35.237Z,17.95
2023-06-09T01:54:45.294Z,17.94
2023-06-09T01:55:06.121Z,17.97
2023-06-09T01:55:16.173Z,17.94
2023-06-09T01:55:26.431Z,17.93
2023-06-09T01:55:36.690Z,17.93
2023-06-09T01:55:47.718Z,17.93
2023-06-09T01:55:57.337Z,17.93
2023-06-09T01:56:14.227Z,17.91
2023-06-09T01:56:18.034Z,17.91
2023-06-09T01:56:28.283Z,17.93
2023-06-09T01:56:41.217Z,17.91
2023-06-09T01:56:48.883Z,17.90
2023-06-09T01:56:59.715Z,17.91
2023-06-09T01:57:19.767Z,17.91
2023-06-09T01:57:30.018Z,17.90
2023-06-09T01:57:43.226Z,17.90
2023-06-09T01:57:50.671Z,17.90
2023-06-09T01:58:03.720Z,17.88
2023-06-09T01:58:11.188Z,17.90
2023-06-09T01:58:21.428Z,17.88
2023-06-09T01:58:31.703Z,17.88
2023-06-09T01:58:53.223Z,17.87
2023-06-09T01:59:02.614Z,17.86
2023-06-09T01:59:13.264Z,17.87
2023-06-09T01:59:23.276Z,17.87
2023-06-09T01:59:33.549Z,17.86
2023-06-09T01:59:43.835Z,17.87
2023-06-09T01:59:54.101Z,17.86
2023-06-09T02:00:05.222Z,17.84
2023-06-09T02:00:15.223Z,17.84
2023-06-09T02:00:31.735Z,17.84
2023-06-09T02:00:35.075Z,17.84
2023-06-09T02:00:45.333Z,17.82
2023-06-09T02:00:55.591Z,17.80
2023-06-09T02:01:05.876Z,17.80
2023-06-09T02:01:16.827Z,17.82
2023-06-09T02:01:37.784Z,17.80
2023-06-09T02:01:47.303Z,17.82
2023-06-09T02:01:57.654Z,17.80
2023-06-09T02:02:08.757Z,17.79
2023-06-09T02:02:18.724Z,17.79
2023-06-09T02:02:28.588Z,17.80
2023-06-09T02:02:38.923Z,17.78
2023-06-09T02:02:49.798Z,17.79
2023-06-09T02:02:59.487Z,17.79
2023-06-09T02:03:09.820Z,17.78
2023-06-09T02:03:22.806Z,17.76
2023-06-09T02:03:30.611Z,17.76
2023-06-09T02:03:40.969Z,17.76
2023-06-09T02:03:51.293Z,17.76
2023-06-09T02:04:01.606Z,17.75
2023-06-09T02:04:11.989Z,17.75
2023-06-09T02:04:33.279Z,17.73
2023-06-09T02:04:43.739Z,17.73
2023-06-09T02:04:53.719Z,17.73
2023-06-09T02:05:03.339Z,17.73
2023-06-09T02:05:13.601Z,17.72
2023-06-09T02:05:24.734Z,17.72
2023-06-09T02:05:36.723Z,17.72
2023-06-09T02:05:51.219Z,17.71
2023-06-09T02:05:54.792Z,17.71
2023-06-09T02:06:26.062Z,17.72
2023-06-09T02:06:27.219Z,17.68
2023-06-09T02:06:37.719Z,17.68
2023-06-09T02:06:47.748Z,17.69
2023-06-09T02:06:57.333Z,17.66
2023-06-09T02:07:08.224Z,17.68
2023-06-09T02:07:28.728Z,17.69
2023-06-09T02:07:38.334Z,17.68
2023-06-09T02:07:49.218Z,17.69
2023-06-09T02:07:58.838Z,17.65
2023-06-09T02:08:09.112Z,17.63
2023-06-09T02:08:20.223Z,17.66
2023-06-09T02:08:29.625Z,17.66
2023-06-09T02:08:40.735Z,17.65
2023-06-09T02:08:50.135Z,17.65
2023-06-09T02:09:00.418Z,17.63
2023-06-09T02:09:10.669Z,17.63
2023-06-09T02:09:27.734Z,17.60
2023-06-09T02:09:31.297Z,17.63
2023-06-09T02:09:42.223Z,17.63
2023-06-09T02:09:51.856Z,17.63
2023-06-09T02:10:02.096Z,17.59
2023-06-09T02:10:12.366Z,17.63
2023-06-09T02:10:33.038Z,17.60
2023-06-09T02:10:43.296Z,17.60
2023-06-09T02:10:53.578Z,17.60
2023-06-09T02:11:03.822Z,17.59
2023-06-09T02:11:14.081Z,17.60
2023-06-09T02:11:24.359Z,17.59
2023-06-09T02:11:35.235Z,17.57
2023-06-09T02:11:45.729Z,17.57
2023-06-09T02:11:55.735Z,17.57
2023-06-09T02:12:08.229Z,17.57
2023-06-09T02:12:15.909Z,17.56
2023-06-09T02:12:32.737Z,17.56
2023-06-09T02:12:36.506Z,17.56
2023-06-09T02:12:46.781Z,17.54
2023-06-09T02:12:57.730Z,17.56
2023-06-09T02:13:18.240Z,17.56
2023-06-09T02:13:28.070Z,17.54
2023-06-09T02:13:38.348Z,17.53
2023-06-09T02:13:48.637Z,17.54
2023-06-09T02:13:58.901Z,17.54
2023-06-09T02:14:09.146Z,17.54
2023-06-09T02:14:22.250Z,17.53
2023-06-09T02:14:29.677Z,17.53
2023-06-09T02:14:40.721Z,17.52
2023-06-09T02:14:50.343Z,17.52
2023-06-09T02:15:00.605Z,17.52
2023-06-09T02:15:11.064Z,17.53
2023-06-09T02:15:31.581Z,17.50
2023-06-09T02:15:41.855Z,17.50
2023-06-09T02:15:58.733Z,17.52
2023-06-09T02:16:02.408Z,17.50
2023-06-09T02:16:12.718Z,17.50
2023-06-09T02:16:29.818Z,17.49
2023-06-09T02:16:36.306Z,17.49
2023-06-09T02:16:43.828Z,17.49
2023-06-09T02:17:04.290Z,17.46
2023-06-09T02:17:14.565Z,17.47
2023-06-09T02:17:27.766Z,17.46
2023-06-09T02:17:35.754Z,17.47
2023-06-09T02:17:46.318Z,17.46
2023-06-09T02:17:57.253Z,17.46
2023-06-09T02:18:06.272Z,17.46
2023-06-09T02:18:16.565Z,17.44
2023-06-09T02:18:37.229Z,17.44
2023-06-09T02:18:48.230Z,17.44
2023-06-09T02:18:57.842Z,17.42
2023-06-09T02:19:10.724Z,17.42
2023-06-09T02:19:21.234Z,17.44
2023-06-09T02:19:29.230Z,17.42
2023-06-09T02:19:39.051Z,17.42
2023-06-09T02:19:49.315Z,17.44
2023-06-09T02:20:02.242Z,17.41
2023-06-09T02:20:21.244Z,17.39
2023-06-09T02:20:30.639Z,17.41
2023-06-09T02:20:40.898Z,17.39
2023-06-09T02:20:51.234Z,17.39
2023-06-09T02:21:01.468Z,17.38
2023-06-09T02:21:11.729Z,17.39
2023-06-09T02:21:21.990Z,17.39
2023-06-09T02:21:32.250Z,17.38
2023-06-09T02:21:42.529Z,17.38
2023-06-09T02:21:55.726Z,17.38
2023-06-09T02:22:03.189Z,17.37
2023-06-09T02:22:13.438Z,17.38
2023-06-09T02:22:23.720Z,17.38
2023-06-09T02:22:34.013Z,17.37
2023-06-09T02:22:45.235Z,17.38
2023-06-09T02:23:04.959Z,17.37
2023-06-09T02:23:15.725Z,17.37
2023-06-09T02:23:26.261Z,17.35
2023-06-09T02:23:36.741Z,17.34
2023-06-09T02:23:46.149Z,17.32
2023-06-09T02:23:57.301Z,17.34
2023-06-09T02:24:09.309Z,17.32
2023-06-09T02:24:17.819Z,17.32
2023-06-09T02:24:27.184Z,17.31
2023-06-09T02:24:37.447Z,17.28
2023-06-09T02:24:47.706Z,17.30
2023-06-09T02:24:58.013Z,17.31
2023-06-09T02:25:18.496Z,17.28